createdAt,value
2023-03-07T00:01:10.677Z,1.80
2023-03-07T00:03:51.084Z,1.80
2023-03-07T00:06:33.888Z,1.81
2023-03-07T00:09:23.192Z,1.81
2023-03-07T00:12:04.431Z,1.82
2023-03-07T00:14:58.046Z,1.84
2023-03-07T00:17:36.455Z,1.88
2023-03-07T00:20:19.398Z,1.87
2023-03-07T00:23:01.868Z,1.86
2023-03-07T00:26:02.201Z,1.82
2023-03-07T00:28:55.809Z,1.82
2023-03-07T00:31:45.545Z,1.86
2023-03-07T00:34:31.521Z,1.84
2023-03-07T00:37:20.404Z,1.82
2023-03-07T00:39:57.683Z,1.83
2023-03-07T00:42:41.568Z,1.86
2023-03-07T00:45:26.614Z,1.87
2023-03-07T00:48:19.875Z,1.85
2023-03-07T00:51:15.810Z,1.83
2023-03-07T00:53:59.086Z,1.86
2023-03-07T00:56:41.928Z,1.90
2023-03-07T00:59:19.751Z,1.93
2023-03-07T01:01:52.416Z,1.96
2023-03-07T01:04:29.822Z,2.00
2023-03-07T01:07:22.185Z,2.03
2023-03-07T01:10:08.347Z,2.07
2023-03-07T01:12:52.153Z,2.08
2023-03-07T01:15:44.577Z,2.09
2023-03-07T01:18:27.561Z,2.07
2023-03-07T01:21:02.167Z,2.07
2023-03-07T01:23:37.264Z,2.07
2023-03-07T01:26:31.299Z,2.07
2023-03-07T01:29:23.676Z,2.09
2023-03-07T01:32:01.937Z,2.11
2023-03-07T01:34:44.365Z,2.13
2023-03-07T01:37:36.660Z,2.15
2023-03-07T01:40:29.010Z,2.18
2023-03-07T01:43:30.304Z,2.21
2023-03-07T01:46:44.007Z,2.23
2023-03-07T01:49:39.714Z,2.24
2023-03-07T01:52:35.993Z,2.27
2023-03-07T01:55:32.356Z,2.30
2023-03-07T01:58:22.328Z,2.32
2023-03-07T02:01:16.083Z,2.36
2023-03-07T02:04:08.429Z,2.39
2023-03-07T02:06:54.432Z,2.41
2023-03-07T02:09:40.008Z,2.42
2023-03-07T02:12:32.513Z,2.43
2023-03-07T02:15:18.546Z,2.42
2023-03-07T02:18:01.660Z,2.41
2023-03-07T02:20:53.180Z,2.40
2023-03-07T02:23:53.521Z,2.39
2023-03-07T02:26:50.457Z,2.38
2023-03-07T02:29:32.711Z,2.36
2023-03-07T02:32:20.335Z,2.34
2023-03-07T02:35:19.510Z,2.31
2023-03-07T02:38:06.199Z,2.29
2023-03-07T02:40:59.767Z,2.28
2023-03-07T02:43:52.248Z,2.27
2023-03-07T02:46:38.173Z,2.28
2023-03-07T02:49:30.936Z,2.32
2023-03-07T02:52:12.214Z,2.33
2023-03-07T02:55:04.724Z,2.32
2023-03-07T02:57:55.512Z,2.33
2023-03-07T03:00:47.886Z,2.31
2023-03-07T03:03:23.532Z,2.31
2023-03-07T03:06:10.279Z,2.31
2023-03-07T03:08:54.074Z,2.31
2023-03-07T03:11:46.553Z,2.31
2023-03-07T03:14:38.770Z,2.33
2023-03-07T03:17:21.076Z,2.32
2023-03-07T03:20:11.755Z,2.33
2023-03-07T03:22:46.180Z,2.35
2023-03-07T03:25:40.225Z,2.35
2023-03-07T03:28:32.684Z,2.35
2023-03-07T03:31:25.042Z,2.33
2023-03-07T03:34:06.528Z,2.30
2023-03-07T03:36:59.267Z,2.26
2023-03-07T03:39:37.767Z,2.22
2023-03-07T03:42:30.292Z,2.17
2023-03-07T03:45:10.139Z,2.13
2023-03-07T03:47:55.115Z,2.12
2023-03-07T03:50:42.723Z,2.09
2023-03-07T03:53:37.369Z,2.05
2023-03-07T03:56:23.404Z,2.00
2023-03-07T03:59:15.920Z,1.95
2023-03-07T04:01:56.817Z,1.88
2023-03-07T04:04:39.870Z,1.84
2023-03-07T04:07:19.474Z,1.81
2023-03-07T04:10:13.288Z,1.75
2023-03-07T04:12:56.654Z,1.66
2023-03-07T04:15:49.074Z,1.56
2023-03-07T04:18:29.829Z,1.48
2023-03-07T04:21:22.748Z,1.40
2023-03-07T04:24:15.004Z,1.28
2023-03-07T04:27:07.716Z,1.17
2023-03-07T04:29:50.722Z,1.07
2023-03-07T04:32:39.483Z,1.02
2023-03-07T04:35:32.547Z,0.98
2023-03-07T04:38:24.877Z,0.91
2023-03-07T04:41:12.296Z,0.84
2023-03-07T04:44:04.735Z,0.75
2023-03-07T04:46:57.089Z,0.65
2023-03-07T04:49:49.237Z,0.57
2023-03-07T04:52:40.173Z,0.52
2023-03-07T04:55:32.479Z,0.49
2023-03-07T04:58:24.972Z,0.45
2023-03-07T05:01:17.208Z,0.45
2023-03-07T05:04:08.137Z,0.44
2023-03-07T05:07:00.782Z,0.40
2023-03-07T05:09:51.492Z,0.38
2023-03-07T05:12:32.698Z,0.40
2023-03-07T05:15:25.187Z,0.42
2023-03-07T05:18:16.053Z,0.45
2023-03-07T05:21:08.636Z,0.47
2023-03-07T05:23:59.380Z,0.49
2023-03-07T05:26:42.836Z,0.49
2023-03-07T05:29:35.367Z,0.50
2023-03-07T05:32:27.882Z,0.51
2023-03-07T05:35:18.931Z,0.53
2023-03-07T05:38:11.482Z,0.54
2023-03-07T05:41:04.006Z,0.56
2023-03-07T05:43:56.410Z,0.61
2023-03-07T05:46:48.922Z,0.64
2023-03-07T05:49:41.212Z,0.68
2023-03-07T05:52:33.458Z,0.71
2023-03-07T05:55:25.845Z,0.75
2023-03-07T05:58:03.847Z,0.81
2023-03-07T06:00:56.310Z,0.86
2023-03-07T06:03:47.803Z,0.90
2023-03-07T06:06:39.025Z,0.93
2023-03-07T06:09:23.648Z,0.94
2023-03-07T06:12:19.034Z,0.96
2023-03-07T06:15:13.588Z,1.01
2023-03-07T06:17:59.518Z,1.03
2023-03-07T06:20:39.433Z,1.06
2023-03-07T06:23:34.169Z,1.12
2023-03-07T06:26:26.809Z,1.19
2023-03-07T06:29:10.399Z,1.27
2023-03-07T06:32:03.058Z,1.38
2023-03-07T06:34:54.474Z,1.54
2023-03-07T06:37:30.879Z,1.70
2023-03-07T06:40:23.448Z,1.80
2023-03-07T06:42:58.899Z,1.82
2023-03-07T06:45:51.277Z,1.84
2023-03-07T06:48:42.135Z,1.89
2023-03-07T06:51:29.536Z,1.93
2023-03-07T06:54:07.871Z,1.98
2023-03-07T06:57:00.447Z,2.03
2023-03-07T06:59:51.246Z,2.10
2023-03-07T07:02:36.754Z,2.15
2023-03-07T07:05:28.882Z,2.22
2023-03-07T07:08:19.599Z,2.41
2023-03-07T07:11:11.285Z,2.54
2023-03-07T07:13:52.012Z,2.66
2023-03-07T07:16:29.244Z,2.74
2023-03-07T07:19:22.115Z,3.07
2023-03-07T07:22:12.048Z,3.54
2023-03-07T07:24:44.808Z,3.80
2023-03-07T07:27:20.931Z,4.01
2023-03-07T07:29:58.425Z,4.31
2023-03-07T07:32:45.018Z,4.73
2023-03-07T07:35:40.245Z,4.99
2023-03-07T07:38:21.571Z,5.12
2023-03-07T07:41:13.911Z,5.08
2023-03-07T07:43:48.383Z,5.00
2023-03-07T07:46:28.893Z,4.88
2023-03-07T07:49:11.473Z,4.68
2023-03-07T07:51:55.292Z,4.48
2023-03-07T07:54:47.361Z,4.32
2023-03-07T07:57:32.483Z,4.14
2023-03-07T08:00:21.116Z,4.03
2023-03-07T08:03:13.385Z,3.90
2023-03-07T08:06:06.123Z,3.79
2023-03-07T08:08:46.307Z,3.72
2023-03-07T08:11:37.528Z,3.70
2023-03-07T08:14:29.819Z,3.69
2023-03-07T08:17:22.023Z,3.72
2023-03-07T08:20:01.667Z,3.73
2023-03-07T08:22:54.248Z,3.78
2023-03-07T08:25:46.685Z,3.87
2023-03-07T08:28:37.802Z,3.97
2023-03-07T08:31:24.557Z,4.03
2023-03-07T08:34:16.876Z,4.10
2023-03-07T08:36:56.644Z,4.12
2023-03-07T08:39:48.958Z,4.12
2023-03-07T08:42:41.437Z,4.12
2023-03-07T08:45:32.256Z,4.28
2023-03-07T08:48:16.973Z,4.55
2023-03-07T08:50:57.914Z,5.00
2023-03-07T08:53:49.785Z,5.58
2023-03-07T08:56:42.115Z,6.07
2023-03-07T08:59:25.234Z,6.48
2023-03-07T09:02:03.979Z,6.86
2023-03-07T09:04:36.242Z,7.15
2023-03-07T09:07:20.878Z,7.36
2023-03-07T09:10:08.323Z,7.27
2023-03-07T09:12:58.544Z,7.06
2023-03-07T09:15:33.985Z,6.84
2023-03-07T09:18:17.168Z,6.61
2023-03-07T09:21:03.402Z,6.50
2023-03-07T09:23:55.755Z,6.56
2023-03-07T09:26:48.024Z,6.77
2023-03-07T09:29:31.144Z,7.02
2023-03-07T09:32:16.552Z,7.15
2023-03-07T09:35:04.032Z,7.15
2023-03-07T09:37:49.984Z,7.15
2023-03-07T09:40:31.220Z,7.12
2023-03-07T09:43:19.094Z,7.10
2023-03-07T09:46:06.780Z,7.14
2023-03-07T09:49:11.061Z,7.30
2023-03-07T09:51:47.965Z,7.50
2023-03-07T09:54:27.473Z,7.50
2023-03-07T09:57:16.731Z,7.40
2023-03-07T09:59:56.718Z,7.32
2023-03-07T10:02:54.152Z,7.28
2023-03-07T10:05:36.599Z,7.47
2023-03-07T10:08:18.486Z,7.71
2023-03-07T10:11:24.236Z,8.02
2023-03-07T10:14:12.173Z,8.12
2023-03-07T10:16:56.467Z,8.01
2023-03-07T10:19:52.466Z,8.04
2023-03-07T10:22:49.978Z,8.08
2023-03-07T10:25:41.958Z,8.07
2023-03-07T10:28:31.231Z,8.09
2023-03-07T10:31:27.863Z,8.12
2023-03-07T10:34:26.062Z,8.10
2023-03-07T10:37:18.865Z,8.12
2023-03-07T10:40:04.464Z,8.19
2023-03-07T10:42:58.480Z,8.21
2023-03-07T10:45:50.873Z,8.12
2023-03-07T10:48:47.213Z,8.01
2023-03-07T10:51:54.560Z,7.93
2023-03-07T10:54:35.247Z,7.86
2023-03-07T10:57:30.581Z,7.82
2023-03-07T11:00:24.248Z,7.77
2023-03-07T11:03:27.682Z,7.74
2023-03-07T11:06:35.415Z,7.76
2023-03-07T11:09:30.342Z,7.71
2023-03-07T11:12:21.114Z,7.64
2023-03-07T11:15:19.461Z,7.60
2023-03-07T11:18:29.149Z,7.52
2023-03-07T11:21:33.708Z,7.50
2023-03-07T11:24:29.556Z,7.60
2023-03-07T11:27:25.568Z,7.75
2023-03-07T11:30:23.427Z,7.89
2023-03-07T11:33:23.648Z,8.04
2023-03-07T11:36:22.249Z,8.14
2023-03-07T11:39:15.490Z,8.15
2023-03-07T11:42:05.819Z,8.11
2023-03-07T11:44:53.229Z,8.10
2023-03-07T11:47:49.847Z,8.04
2023-03-07T11:50:45.795Z,7.98
2023-03-07T11:53:50.965Z,7.95
2023-03-07T11:56:48.393Z,7.92
2023-03-07T11:59:53.241Z,7.94
2023-03-07T12:03:11.438Z,7.98
2023-03-07T12:06:24.903Z,8.09
2023-03-07T12:09:30.040Z,8.18
2023-03-07T12:12:19.227Z,8.20
2023-03-07T12:15:32.319Z,8.19
2023-03-07T12:18:32.670Z,8.12
2023-03-07T12:21:33.622Z,8.01
2023-03-07T12:24:21.169Z,7.89
2023-03-07T12:27:19.280Z,7.79
2023-03-07T12:30:05.799Z,7.64
2023-03-07T12:32:57.389Z,7.57
2023-03-07T12:35:47.332Z,7.52
2023-03-07T12:38:44.217Z,7.42
2023-03-07T12:41:49.101Z,7.36
2023-03-07T12:44:41.949Z,7.28
2023-03-07T12:47:46.114Z,7.16
2023-03-07T12:50:47.845Z,7.04
2023-03-07T12:53:47.710Z,6.97
2023-03-07T12:56:41.553Z,6.92
2023-03-07T12:59:28.403Z,6.92
2023-03-07T13:02:17.685Z,6.97
2023-03-07T13:05:03.007Z,7.03
2023-03-07T13:07:47.456Z,7.03
2023-03-07T13:10:39.779Z,7.03
2023-03-07T13:13:58.513Z,7.07
2023-03-07T13:16:48.252Z,7.10
2023-03-07T13:19:54.993Z,7.15
2023-03-07T13:23:14.585Z,7.16
2023-03-07T13:26:13.658Z,7.21
2023-03-07T13:28:58.082Z,7.20
2023-03-07T13:31:50.416Z,7.19
2023-03-07T13:34:51.586Z,7.22
2023-03-07T13:37:57.883Z,7.25
2023-03-07T13:40:57.707Z,7.27
2023-03-07T13:44:01.511Z,7.27
2023-03-07T13:46:55.828Z,7.27
2023-03-07T13:49:48.668Z,7.26
2023-03-07T13:52:40.603Z,7.27
2023-03-07T13:55:34.752Z,7.25
2023-03-07T13:58:26.317Z,7.25
2023-03-07T14:01:18.497Z,7.24
2023-03-07T14:04:13.265Z,7.21
2023-03-07T14:07:11.579Z,7.15
2023-03-07T14:10:21.968Z,7.09
2023-03-07T14:13:45.621Z,7.03
2023-03-07T14:16:49.860Z,6.98
2023-03-07T14:19:51.461Z,6.95
2023-03-07T14:22:56.140Z,6.90
2023-03-07T14:25:43.327Z,6.89
2023-03-07T14:28:27.093Z,6.89
2023-03-07T14:31:27.482Z,6.89
2023-03-07T14:34:29.491Z,6.87
2023-03-07T14:37:18.136Z,6.87
2023-03-07T14:40:28.121Z,6.88
2023-03-07T14:43:37.412Z,6.89
2023-03-07T14:46:41.126Z,6.89
2023-03-07T14:49:30.263Z,6.88
2023-03-07T14:52:31.424Z,6.89
2023-03-07T14:55:27.179Z,6.91
2023-03-07T14:58:19.123Z,6.93
2023-03-07T15:01:02.956Z,6.95
2023-03-07T15:03:50.484Z,6.97
2023-03-07T15:06:48.595Z,7.00
2023-03-07T15:09:38.598Z,7.03
2023-03-07T15:12:26.461Z,7.05
2023-03-07T15:15:27.530Z,7.05
2023-03-07T15:18:26.993Z,7.05
2023-03-07T15:21:21.894Z,7.04
2023-03-07T15:24:40.907Z,7.04
2023-03-07T15:27:25.722Z,7.04
2023-03-07T15:30:32.585Z,7.05
2023-03-07T15:33:45.513Z,7.04
2023-03-07T15:36:37.716Z,7.04
2023-03-07T15:39:40.951Z,7.03
2023-03-07T15:42:55.765Z,7.01
2023-03-07T15:45:39.237Z,7.01
2023-03-07T15:48:30.774Z,7.00
2023-03-07T15:51:17.792Z,6.99
2023-03-07T15:54:23.067Z,6.97
2023-03-07T15:57:23.128Z,6.93
2023-03-07T16:00:25.252Z,6.92
2023-03-07T16:03:27.491Z,6.92
2023-03-07T16:06:43.179Z,6.91
2023-03-07T16:09:26.452Z,6.87
2023-03-07T16:12:22.432Z,6.85
2023-03-07T16:15:18.432Z,6.82
2023-03-07T16:18:06.095Z,6.78
2023-03-07T16:20:50.959Z,6.76
2023-03-07T16:23:43.196Z,6.75
2023-03-07T16:26:34.484Z,6.75
2023-03-07T16:29:18.013Z,6.74
2023-03-07T16:32:13.432Z,6.72
2023-03-07T16:35:11.063Z,6.69
2023-03-07T16:38:03.391Z,6.65
2023-03-07T16:40:56.003Z,6.62
2023-03-07T16:43:37.740Z,6.60
2023-03-07T16:46:31.185Z,6.59
2023-03-07T16:49:06.070Z,6.59
2023-03-07T16:52:06.221Z,6.56
2023-03-07T16:54:49.633Z,6.51
2023-03-07T16:57:34.993Z,6.48
2023-03-07T17:00:25.279Z,6.45
2023-03-07T17:03:17.517Z,6.43
2023-03-07T17:06:13.478Z,6.40
2023-03-07T17:09:06.336Z,6.39
2023-03-07T17:11:58.625Z,6.38
2023-03-07T17:14:41.408Z,6.37
2023-03-07T17:17:30.081Z,6.37
2023-03-07T17:20:22.844Z,6.38
2023-03-07T17:23:07.977Z,6.36
2023-03-07T17:25:51.387Z,6.35
2023-03-07T17:28:42.151Z,6.35
2023-03-07T17:31:34.465Z,6.33
2023-03-07T17:34:25.663Z,6.33
2023-03-07T17:37:18.103Z,6.31
2023-03-07T17:40:10.380Z,6.31
2023-03-07T17:43:04.024Z,6.30
2023-03-07T17:45:56.314Z,6.29
2023-03-07T17:48:48.686Z,6.29
2023-03-07T17:51:40.991Z,6.30
2023-03-07T17:54:35.192Z,6.31
2023-03-07T17:57:28.250Z,6.31
2023-03-07T18:00:22.714Z,6.30
2023-03-07T18:03:08.338Z,6.32
2023-03-07T18:06:03.208Z,6.33
2023-03-07T18:08:57.518Z,6.32
2023-03-07T18:11:52.315Z,6.32
2023-03-07T18:14:37.142Z,6.31
2023-03-07T18:17:38.399Z,6.30
2023-03-07T18:20:38.792Z,6.30
2023-03-07T18:23:22.017Z,6.29
2023-03-07T18:26:16.704Z,6.27
2023-03-07T18:29:09.194Z,6.24
2023-03-07T18:32:01.476Z,6.23
2023-03-07T18:34:53.914Z,6.22
2023-03-07T18:37:45.504Z,6.20
2023-03-07T18:40:37.989Z,6.17
2023-03-07T18:43:30.348Z,6.15
2023-03-07T18:46:24.230Z,6.12
2023-03-07T18:49:17.869Z,6.11
2023-03-07T18:52:09.036Z,6.10
2023-03-07T18:54:59.665Z,6.09
2023-03-07T18:57:44.664Z,6.07
2023-03-07T19:00:32.449Z,6.07
2023-03-07T19:03:10.286Z,6.07
2023-03-07T19:05:58.903Z,6.07
2023-03-07T19:08:51.677Z,6.06
2023-03-07T19:11:44.132Z,6.06
2023-03-07T19:14:35.087Z,6.06
2023-03-07T19:20:11.400Z,6.13
2023-03-07T19:22:40.196Z,6.12
2023-03-07T19:25:10.239Z,6.12
2023-03-07T19:27:45.410Z,6.12
2023-03-07T19:30:27.936Z,6.12
2023-03-07T19:33:01.166Z,6.13
2023-03-07T19:35:37.355Z,6.11
2023-03-07T19:38:09.980Z,6.10
2023-03-07T19:40:41.407Z,6.10
2023-03-07T19:43:19.339Z,6.09
2023-03-07T19:46:08.446Z,6.09
2023-03-07T19:48:40.761Z,6.09
2023-03-07T19:51:14.841Z,6.09
2023-03-07T19:53:45.928Z,6.09
2023-03-07T19:56:42.710Z,6.10
